Archival Weather

Chicago O'Hare International

Chicago, Illinois (KORD)

Report from: Saturday, March 31, 2012 12:51 AM CDT
Current time: Wednesday, December 6, 2023 12:47 AM CST

Current weather – Weather history – Daily summaries
Weather forecast

Temperature5.0°C (41.0°F)
Wind chill1.5°C (34.7°F)
Dew point1.7°C (35.1°F)
Winds 9 kts (4.6 m/s, 10.4 mph) Northeast (50°)
Visibility10 mi. (16.1 km)
Clouds Ceiling: Overcast 1,000 ft. (305 m)
Altimeter29.95 in.Hg (1014 mB)
Relative humidity79 %
Density altitude-1,148 ft. (-350 m)
Sea-level pressure101.5 kPa (1015 mB, 29.96 in.Hg)
Max temp last 6 hours6.1°C (43.0°F)
Min temp last 6 hours5.0°C (41.0°F)
Max temp last 24 hours11.7°C (53.1°F)
Min temp last 24 hours4.4°C (39.9°F)
Remarks System requires maintenance
Automated weather observing station with precipitation discriminator
Pressure rising more quickly
Flight conditions Marginal Visual Meteorological Conditions
Raw data2012-03-31 05:51 KORD 310551Z 05009KT 10SM OVC010 05/02 A2995 RMK AO2 SLP145 T00500017 10061 20050 401170044 53016 $
An error has occurred. This application may no longer respond until reloaded. Reload 🗙